Time;durP1;ratioP1;P1;durP2;ratioP2;P2;SDS_P1;SDS_P2;PMS_P1;PMS_P2;Temp;Humidity;BMP_temperature;BMP_pressure;BME280_temperature;BME280_humidity;BME280_pressure;Samples;Min_cycle;Max_cycle;Signal;HPM_P1;HPM_P2
2022/12/26 00:01:27;;;;;;;;;;;8.20;99.90;;;;;;5033189;28;19990;-77
2022/12/26 00:03:53;;;;;;;;;;;8.20;99.90;;;;;;5033392;28;19944;-77
2022/12/26 00:06:20;;;;;;;;;;;8.20;99.90;;;;;;5039077;28;20012;-77
2022/12/26 00:08:46;;;;;;;;;;;8.20;99.90;;;;;;5031539;28;19925;-77
2022/12/26 00:11:12;;;;;;;;;;;8.20;99.90;;;;;;5035528;28;19944;-77
2022/12/26 00:13:39;;;;;;;;;;;8.20;99.90;;;;;;5036779;28;19925;-76
2022/12/26 00:16:15;;;;;;;;;;;8.20;99.90;;;;;;5040457;28;20008;-77
2022/12/26 00:18:40;;;;;;;;;;;8.20;99.90;;;;;;5034357;28;20072;-77
2022/12/26 00:21:07;;;;;;;;;;;8.10;99.90;;;;;;5035211;28;20376;-77
2022/12/26 00:23:33;;;;;;;;;;;8.20;99.90;;;;;;5038640;28;19929;-77
2022/12/26 00:26:06;;;;;;;;;;;8.20;99.90;;;;;;5039529;28;19963;-77
2022/12/26 00:28:32;;;;;;;;;;;8.20;99.90;;;;;;5035488;28;19933;-77
2022/12/26 00:30:57;;;;;;;;;;;8.20;99.90;;;;;;5032881;28;19929;-77
2022/12/26 00:33:23;;;;;;;;;;;8.20;99.90;;;;;;5034092;28;19929;-78
2022/12/26 00:35:49;;;;;;;;;;;8.20;99.90;;;;;;5033422;28;20004;-78
2022/12/26 00:38:15;;;;;;;;;;;8.20;99.90;;;;;;5033945;28;20073;-77
2022/12/26 00:40:42;;;;;;;;;;;8.20;99.90;;;;;;5030957;28;19971;-76
2022/12/26 00:43:08;;;;;;;;;;;8.20;99.90;;;;;;5032182;28;19929;-75
2022/12/26 00:45:34;;;;;;;;;;;8.30;99.90;;;;;;5032706;28;19926;-75
2022/12/26 00:47:59;;;;;;;;;;;8.30;99.90;;;;;;5012386;28;20402;-75
2022/12/26 00:50:25;;;;;;;;;;;8.30;99.90;;;;;;5014913;28;19929;-75
2022/12/26 00:52:50;;;;;;;;;;;8.30;99.90;;;;;;5032637;28;19928;-75
2022/12/26 00:55:16;;;;;;;;;;;8.30;99.90;;;;;;5031938;28;19925;-75
2022/12/26 00:57:42;;;;;;;;;;;8.30;99.90;;;;;;5016300;28;19992;-75
2022/12/26 01:00:07;;;;;;;;;;;8.30;99.90;;;;;;5030045;28;20023;-75
2022/12/26 01:02:39;;;;;;;;;;;8.30;99.90;;;;;;5033039;28;19925;-75
2022/12/26 01:05:06;;;;;;;;;;;8.30;99.90;;;;;;5032242;28;19972;-75
2022/12/26 01:07:32;;;;;;;;;;;8.40;99.90;;;;;;5031418;28;19960;-76
2022/12/26 01:09:58;;;;;;;;;;;8.30;99.90;;;;;;5032269;28;20084;-75
2022/12/26 01:12:24;;;;;;;;;;;8.30;99.90;;;;;;5035310;28;20017;-75
2022/12/26 01:14:49;;;;;;;;;;;8.40;99.90;;;;;;5033962;28;19925;-75
2022/12/26 01:17:15;;;;;;;;;;;8.30;99.90;;;;;;5036099;28;19925;-75
2022/12/26 01:19:40;;;;;;;;;;;8.40;99.90;;;;;;5030898;28;19929;-75
2022/12/26 01:22:06;;;;;;;;;;;8.40;99.90;;;;;;5034795;28;20026;-75
2022/12/26 01:24:31;;;;;;;;;;;8.40;99.90;;;;;;5036419;28;19925;-75
2022/12/26 01:26:57;;;;;;;;;;;8.40;99.90;;;;;;5033699;28;19971;-75
2022/12/26 01:29:22;;;;;;;;;;;8.40;99.90;;;;;;5033079;28;19928;-75
2022/12/26 01:31:48;;;;;;;;;;;8.40;99.90;;;;;;5031515;28;20444;-75
2022/12/26 01:34:14;;;;;;;;;;;8.50;99.90;;;;;;5030516;28;19996;-75
2022/12/26 01:36:39;;;;;;;;;;;8.40;99.90;;;;;;5031940;28;19967;-74
2022/12/26 01:39:05;;;;;;;;;;;8.50;99.90;;;;;;5032758;28;19925;-75
2022/12/26 01:41:32;;;;;;;;;;;8.40;99.90;;;;;;5032663;28;20498;-74
2022/12/26 01:44:02;;;;;;;;;;;8.40;99.90;;;;;;5030972;28;19929;-74
2022/12/26 01:46:29;;;;;;;;;;;8.50;99.90;;;;;;5031093;28;19965;-74
2022/12/26 01:48:58;;;;;;;;;;;8.40;99.90;;;;;;5030464;28;19987;-75
2022/12/26 01:51:25;;;;;;;;;;;8.40;99.90;;;;;;5028550;28;19987;-74
2022/12/26 01:53:53;;;;;;;;;;;8.50;99.90;;;;;;5032266;28;19933;-75
2022/12/26 01:56:22;;;;;;;;;;;8.50;99.90;;;;;;5030487;28;19992;-74
2022/12/26 01:58:50;;;;;;;;;;;8.40;99.90;;;;;;5030362;28;19929;-74
2022/12/26 02:01:16;;;;;;;;;;;8.40;99.90;;;;;;5032515;28;19972;-74
2022/12/26 02:06:28;;;;;;;;;;;8.40;99.90;;;;;;5033571;28;19925;-74
2022/12/26 02:08:54;;;;;;;;;;;8.50;99.90;;;;;;5033034;28;19929;-73
2022/12/26 02:11:22;;;;;;;;;;;8.40;99.90;;;;;;5037101;28;20122;-73
2022/12/26 02:13:48;;;;;;;;;;;8.50;99.90;;;;;;5038967;28;19943;-73
2022/12/26 02:16:16;;;;;;;;;;;8.50;99.90;;;;;;5035813;28;19976;-73
2022/12/26 02:18:42;;;;;;;;;;;8.40;99.90;;;;;;5036337;28;19985;-74
2022/12/26 02:21:10;;;;;;;;;;;8.40;99.90;;;;;;5036698;28;19968;-74
2022/12/26 02:23:38;;;;;;;;;;;8.40;99.90;;;;;;5037915;28;19948;-74
2022/12/26 02:26:04;;;;;;;;;;;8.50;99.90;;;;;;5036081;28;19936;-74
2022/12/26 02:28:32;;;;;;;;;;;8.50;99.90;;;;;;5034953;28;19925;-74
2022/12/26 02:31:06;;;;;;;;;;;8.50;99.90;;;;;;5034320;28;20311;-74
2022/12/26 02:33:46;;;;;;;;;;;8.50;99.90;;;;;;5033302;28;20368;-74
2022/12/26 02:36:28;;;;;;;;;;;8.50;99.90;;;;;;5033562;28;19993;-74
2022/12/26 02:39:06;;;;;;;;;;;8.50;99.90;;;;;;5031811;28;20314;-74
2022/12/26 02:41:42;;;;;;;;;;;8.50;99.90;;;;;;5035927;28;20597;-74
2022/12/26 02:47:18;;;;;;;;;;;8.50;99.90;;;;;;5034364;28;20303;-74
2022/12/26 03:15:18;;;;;;;;;;;8.70;99.90;;;;;;5032326;28;19925;-75
2022/12/26 03:17:55;;;;;;;;;;;8.70;99.90;;;;;;5036885;28;19933;-75
2022/12/26 03:20:22;;;;;;;;;;;8.70;99.90;;;;;;5034309;28;19996;-75
2022/12/26 03:22:51;;;;;;;;;;;8.70;99.90;;;;;;5036106;28;19925;-75
2022/12/26 03:28:23;;;;;;;;;;;8.70;99.90;;;;;;5028941;28;19926;-75
2022/12/26 03:30:49;;;;;;;;;;;8.70;99.90;;;;;;5031754;28;19929;-75
2022/12/26 03:36:05;;;;;;;;;;;8.60;99.90;;;;;;5033196;28;19925;-75
2022/12/26 03:38:50;;;;;;;;;;;8.60;99.90;;;;;;5031624;28;19929;-75
2022/12/26 04:21:05;;;;;;;;;;;8.60;99.90;;;;;;5032145;28;19932;-75
2022/12/26 04:45:47;;;;;;;;;;;8.50;99.90;;;;;;5030606;28;19978;-76
2022/12/26 04:50:57;;;;;;;;;;;8.40;99.90;;;;;;5033356;28;19929;-75
2022/12/26 04:53:23;;;;;;;;;;;8.30;99.90;;;;;;5036756;28;20122;-75
2022/12/26 04:55:48;;;;;;;;;;;8.30;99.90;;;;;;5036943;28;19983;-75
2022/12/26 04:58:14;;;;;;;;;;;8.40;99.90;;;;;;5021003;28;19936;-76
2022/12/26 05:00:40;;;;;;;;;;;8.40;99.90;;;;;;5037996;28;20277;-75
2022/12/26 05:11:27;;;;;;;;;;;8.30;99.90;;;;;;5039666;28;19976;-76
2022/12/26 05:13:54;;;;;;;;;;;8.30;99.90;;;;;;5036095;28;19925;-75
2022/12/26 05:30:04;;;;;;;;;;;8.10;99.90;;;;;;5035421;28;19941;-75
2022/12/26 05:35:14;;;;;;;;;;;8.20;99.90;;;;;;5035359;28;19929;-76
2022/12/26 05:37:39;;;;;;;;;;;8.20;99.90;;;;;;5037332;28;20007;-75
2022/12/26 05:40:05;;;;;;;;;;;8.20;99.90;;;;;;5019886;28;19937;-76
2022/12/26 05:42:31;;;;;;;;;;;8.20;99.90;;;;;;5035754;28;19952;-76
2022/12/26 05:44:56;;;;;;;;;;;8.30;99.90;;;;;;5036371;28;19929;-75
2022/12/26 05:47:22;;;;;;;;;;;8.30;99.90;;;;;;5036528;28;20028;-76
2022/12/26 05:49:47;;;;;;;;;;;8.30;99.90;;;;;;5037470;28;19925;-76
2022/12/26 05:52:13;;;;;;;;;;;8.30;99.90;;;;;;5017091;28;19994;-76
2022/12/26 05:54:38;;;;;;;;;;;8.30;99.90;;;;;;5037407;28;19940;-76
2022/12/26 05:57:04;;;;;;;;;;;8.30;99.90;;;;;;5019403;28;19961;-76
2022/12/26 05:59:29;;;;;;;;;;;8.30;99.90;;;;;;5020999;28;20127;-76
2022/12/26 06:01:55;;;;;;;;;;;8.30;99.90;;;;;;5020791;28;20451;-76
2022/12/26 06:04:20;;;;;;;;;;;8.30;99.90;;;;;;5033709;28;19979;-76
2022/12/26 06:06:46;;;;;;;;;;;8.30;99.90;;;;;;5035337;28;19932;-76
2022/12/26 06:09:12;;;;;;;;;;;8.30;99.90;;;;;;5033275;28;19933;-76
2022/12/26 06:11:37;;;;;;;;;;;8.40;99.90;;;;;;5035917;28;19944;-76
2022/12/26 06:14:03;;;;;;;;;;;8.40;99.90;;;;;;5028924;28;19985;-76
2022/12/26 06:16:29;;;;;;;;;;;8.40;99.90;;;;;;5034933;28;19976;-76
2022/12/26 06:18:55;;;;;;;;;;;8.40;99.90;;;;;;5031180;28;19952;-76
2022/12/26 06:21:20;;;;;;;;;;;8.40;99.90;;;;;;5033466;28;19933;-76
2022/12/26 06:23:46;;;;;;;;;;;8.40;99.90;;;;;;5031786;28;20395;-76
2022/12/26 06:26:12;;;;;;;;;;;8.40;99.90;;;;;;5032461;28;19929;-76
2022/12/26 06:28:39;;;;;;;;;;;8.40;99.90;;;;;;5032865;28;19929;-76
2022/12/26 06:31:06;;;;;;;;;;;8.40;99.90;;;;;;5013641;28;19925;-76
2022/12/26 06:33:32;;;;;;;;;;;8.40;99.90;;;;;;5032435;28;19933;-75
2022/12/26 06:36:05;;;;;;;;;;;8.40;99.90;;;;;;5032023;28;19948;-75
2022/12/26 06:38:30;;;;;;;;;;;8.50;99.90;;;;;;5032187;28;19925;-76
2022/12/26 06:40:56;;;;;;;;;;;8.50;99.90;;;;;;5032109;28;20422;-75
2022/12/26 06:43:21;;;;;;;;;;;8.50;99.90;;;;;;5030493;28;19929;-76
2022/12/26 06:45:54;;;;;;;;;;;8.50;99.90;;;;;;5032100;28;19930;-76
2022/12/26 06:48:19;;;;;;;;;;;8.50;99.90;;;;;;5031208;28;20332;-76
2022/12/26 06:50:45;;;;;;;;;;;8.50;99.90;;;;;;5033978;28;19933;-76
2022/12/26 06:53:10;;;;;;;;;;;8.50;99.90;;;;;;5032978;28;19964;-76
2022/12/26 06:55:36;;;;;;;;;;;8.40;99.90;;;;;;5033935;28;19929;-76
2022/12/26 06:58:01;;;;;;;;;;;8.30;99.90;;;;;;5035497;28;20004;-76
2022/12/26 07:00:28;;;;;;;;;;;8.30;99.90;;;;;;5030980;28;20343;-76
2022/12/26 07:02:54;;;;;;;;;;;8.30;99.90;;;;;;5033755;28;19929;-76
2022/12/26 07:05:20;;;;;;;;;;;8.20;99.90;;;;;;5033605;28;19940;-76
2022/12/26 07:07:49;;;;;;;;;;;8.20;99.90;;;;;;5035088;28;19932;-75
2022/12/26 07:10:15;;;;;;;;;;;8.10;99.90;;;;;;5033335;28;20024;-75
2022/12/26 07:12:40;;;;;;;;;;;8.10;99.90;;;;;;5032606;28;19972;-75
2022/12/26 07:15:08;;;;;;;;;;;8.00;99.90;;;;;;5035125;28;20476;-75
2022/12/26 07:17:35;;;;;;;;;;;8.00;99.90;;;;;;5038237;28;19929;-75
2022/12/26 07:20:01;;;;;;;;;;;7.90;99.90;;;;;;5019180;28;19929;-76
2022/12/26 07:22:27;;;;;;;;;;;7.90;99.90;;;;;;5037076;28;20387;-75
2022/12/26 07:24:52;;;;;;;;;;;8.00;99.90;;;;;;5036476;28;19995;-75
2022/12/26 07:27:18;;;;;;;;;;;8.00;99.90;;;;;;5034198;28;20669;-75
2022/12/26 07:29:45;;;;;;;;;;;8.00;99.90;;;;;;5035258;28;20003;-75
2022/12/26 07:32:10;;;;;;;;;;;8.00;99.90;;;;;;5034635;28;19979;-75
2022/12/26 07:34:36;;;;;;;;;;;7.90;99.90;;;;;;5035283;28;19929;-78
2022/12/26 07:37:02;;;;;;;;;;;7.90;99.90;;;;;;5034426;28;20379;-77
2022/12/26 07:39:27;;;;;;;;;;;7.90;99.90;;;;;;5015745;28;19937;-77
2022/12/26 07:41:59;;;;;;;;;;;8.00;99.90;;;;;;5033788;28;19933;-78
2022/12/26 07:44:29;;;;;;;;;;;8.00;99.90;;;;;;5034232;28;20414;-77
2022/12/26 07:46:55;;;;;;;;;;;7.90;99.90;;;;;;5034794;28;19929;-78
2022/12/26 07:49:21;;;;;;;;;;;7.90;99.90;;;;;;5033704;28;19929;-77
2022/12/26 07:51:47;;;;;;;;;;;7.90;99.90;;;;;;5033180;28;19925;-77
2022/12/26 07:54:13;;;;;;;;;;;7.80;99.90;;;;;;5031696;28;19961;-77
2022/12/26 07:56:39;;;;;;;;;;;7.80;99.90;;;;;;5033515;28;19933;-77
2022/12/26 07:59:04;;;;;;;;;;;7.80;99.90;;;;;;5033205;28;19961;-77
2022/12/26 08:01:30;;;;;;;;;;;7.90;99.90;;;;;;5027122;28;19943;-78
2022/12/26 08:03:55;;;;;;;;;;;7.90;99.90;;;;;;5033887;28;19929;-82
2022/12/26 08:06:21;;;;;;;;;;;7.90;99.90;;;;;;5033682;28;20339;-85
2022/12/26 08:08:47;;;;;;;;;;;8.00;99.90;;;;;;5002641;28;19925;-82
2022/12/26 08:11:14;;;;;;;;;;;8.00;99.90;;;;;;5032762;28;19925;-82
2022/12/26 08:13:39;;;;;;;;;;;8.00;99.90;;;;;;5029594;28;19933;-83
2022/12/26 08:16:06;;;;;;;;;;;8.00;99.90;;;;;;5031955;28;19940;-83
2022/12/26 08:18:32;;;;;;;;;;;8.00;99.90;;;;;;5049491;28;19979;-83
2022/12/26 08:20:57;;;;;;;;;;;8.00;99.90;;;;;;5037438;28;19925;-83
2022/12/26 08:23:23;;;;;;;;;;;8.00;99.90;;;;;;5045191;28;19970;-81
2022/12/26 08:25:49;;;;;;;;;;;8.10;99.90;;;;;;5028917;28;19977;-82
2022/12/26 08:28:14;;;;;;;;;;;8.20;99.90;;;;;;5032009;28;19936;-82
2022/12/26 08:30:40;;;;;;;;;;;8.30;99.90;;;;;;5012563;28;19925;-82
2022/12/26 08:33:06;;;;;;;;;;;8.30;99.90;;;;;;5032427;28;19929;-82
2022/12/26 08:35:32;;;;;;;;;;;8.40;99.90;;;;;;5029813;28;19932;-83
2022/12/26 08:37:58;;;;;;;;;;;8.50;99.90;;;;;;5031819;28;19929;-82
2022/12/26 08:40:24;;;;;;;;;;;8.50;99.90;;;;;;5033213;28;20025;-82
2022/12/26 08:42:49;;;;;;;;;;;8.50;99.90;;;;;;5008211;28;19929;-83
2022/12/26 08:45:15;;;;;;;;;;;8.60;99.90;;;;;;5028853;28;20383;-82
2022/12/26 08:47:40;;;;;;;;;;;8.60;99.90;;;;;;5029428;28;19933;-82
2022/12/26 08:50:06;;;;;;;;;;;8.70;99.90;;;;;;5037616;28;19932;-82
2022/12/26 08:52:34;;;;;;;;;;;8.70;99.90;;;;;;5048525;28;19924;-83
2022/12/26 08:55:00;;;;;;;;;;;8.80;99.90;;;;;;5039906;28;19990;-83
2022/12/26 08:57:26;;;;;;;;;;;8.70;99.90;;;;;;5034237;28;20380;-83
2022/12/26 08:59:51;;;;;;;;;;;8.80;99.90;;;;;;5032302;28;19974;-83
2022/12/26 09:02:17;;;;;;;;;;;8.80;99.90;;;;;;5030645;28;19933;-84
2022/12/26 09:04:42;;;;;;;;;;;8.90;99.90;;;;;;5031006;28;19932;-84
2022/12/26 09:07:08;;;;;;;;;;;8.90;99.90;;;;;;5016842;28;19937;-84
2022/12/26 09:09:34;;;;;;;;;;;8.90;99.90;;;;;;5030694;28;19935;-83
2022/12/26 09:11:59;;;;;;;;;;;9.00;99.90;;;;;;5032302;28;19932;-82
2022/12/26 09:14:25;;;;;;;;;;;9.00;99.90;;;;;;5031315;28;19929;-83
2022/12/26 09:16:51;;;;;;;;;;;9.00;99.90;;;;;;5011641;28;19930;-82
2022/12/26 09:19:17;;;;;;;;;;;9.00;99.90;;;;;;5031220;28;19975;-82
2022/12/26 09:21:43;;;;;;;;;;;9.00;99.90;;;;;;5029524;28;20019;-82
2022/12/26 09:24:11;;;;;;;;;;;9.10;99.90;;;;;;5028992;28;20391;-82
2022/12/26 09:26:37;;;;;;;;;;;9.00;99.90;;;;;;5028194;28;20015;-84
2022/12/26 09:29:03;;;;;;;;;;;9.10;99.90;;;;;;5002358;28;19931;-82
2022/12/26 09:31:30;;;;;;;;;;;9.10;99.90;;;;;;5031835;28;19984;-82
2022/12/26 09:33:56;;;;;;;;;;;9.10;99.90;;;;;;5023999;28;19925;-82
2022/12/26 09:36:23;;;;;;;;;;;9.20;99.90;;;;;;5030983;28;19936;-82
2022/12/26 09:38:49;;;;;;;;;;;9.20;99.90;;;;;;5031608;28;19939;-81
2022/12/26 09:41:17;;;;;;;;;;;9.20;99.90;;;;;;5029362;28;19925;-80
2022/12/26 09:43:43;;;;;;;;;;;9.20;99.90;;;;;;5030878;28;20010;-79
2022/12/26 09:46:15;;;;;;;;;;;9.20;99.90;;;;;;5012848;28;19929;-79
2022/12/26 09:48:55;;;;;;;;;;;9.30;99.90;;;;;;5028404;28;19929;-80
2022/12/26 09:51:21;;;;;;;;;;;9.30;99.90;;;;;;5012663;28;19968;-79
2022/12/26 09:53:46;;;;;;;;;;;9.30;99.90;;;;;;5014723;28;19933;-80
2022/12/26 09:56:14;;;;;;;;;;;9.40;99.90;;;;;;5033169;28;19933;-80
2022/12/26 09:58:46;;;;;;;;;;;9.40;99.90;;;;;;5033153;28;19960;-79
2022/12/26 10:01:11;;;;;;;;;;;9.40;99.90;;;;;;5031852;28;19933;-79
2022/12/26 10:03:38;;;;;;;;;;;9.30;99.90;;;;;;5031767;28;19925;-78
2022/12/26 10:06:15;;;;;;;;;;;9.30;99.90;;;;;;5014312;28;19936;-79
2022/12/26 10:08:59;;;;;;;;;;;9.30;99.90;;;;;;5027672;28;19936;-80
2022/12/26 10:11:44;;;;;;;;;;;9.20;99.90;;;;;;5032961;28;19925;-81
2022/12/26 10:14:20;;;;;;;;;;;8.90;99.90;;;;;;5028805;28;20036;-80
2022/12/26 10:16:52;;;;;;;;;;;8.60;99.90;;;;;;5029502;28;19932;-81
2022/12/26 10:19:18;;;;;;;;;;;8.30;99.90;;;;;;5031830;28;19929;-80
2022/12/26 10:21:43;;;;;;;;;;;8.10;99.90;;;;;;5031783;28;20004;-79
2022/12/26 10:24:29;;;;;;;;;;;7.90;99.90;;;;;;5037466;28;19933;-81
2022/12/26 10:26:58;;;;;;;;;;;7.80;99.90;;;;;;5029219;28;19933;-79
2022/12/26 10:29:26;;;;;;;;;;;7.70;99.90;;;;;;5042574;28;19932;-80
2022/12/26 10:31:54;;;;;;;;;;;7.60;99.90;;;;;;5029114;28;20011;-80
2022/12/26 10:34:31;;;;;;;;;;;7.60;99.90;;;;;;5036310;28;20294;-80
2022/12/26 10:37:19;;;;;;;;;;;7.60;99.90;;;;;;5034991;28;20206;-79
2022/12/26 10:40:00;;;;;;;;;;;7.60;99.90;;;;;;5006698;28;19951;-80
2022/12/26 10:42:32;;;;;;;;;;;7.70;99.90;;;;;;5018748;28;19929;-79
2022/12/26 10:44:58;;;;;;;;;;;7.70;99.90;;;;;;5038597;28;19925;-80
2022/12/26 10:47:24;;;;;;;;;;;7.80;99.90;;;;;;5021691;28;19933;-80
2022/12/26 10:49:50;;;;;;;;;;;7.90;99.90;;;;;;5017935;28;19929;-81
2022/12/26 10:52:16;;;;;;;;;;;8.00;99.90;;;;;;5032775;28;19933;-81
2022/12/26 10:54:44;;;;;;;;;;;8.00;99.90;;;;;;5033008;28;20418;-80
2022/12/26 10:57:10;;;;;;;;;;;8.00;99.90;;;;;;5030876;28;20269;-81
2022/12/26 10:59:39;;;;;;;;;;;7.90;99.90;;;;;;5033899;28;19963;-81
2022/12/26 11:02:13;;;;;;;;;;;7.90;99.90;;;;;;5032154;28;19929;-82
2022/12/26 11:04:55;;;;;;;;;;;7.90;99.90;;;;;;5032074;28;19929;-82
2022/12/26 11:07:20;;;;;;;;;;;7.90;99.90;;;;;;5031977;28;19925;-82
2022/12/26 11:09:49;;;;;;;;;;;7.90;99.90;;;;;;5036007;28;19963;-82
2022/12/26 11:12:18;;;;;;;;;;;7.80;99.90;;;;;;5038589;28;19984;-81
2022/12/26 11:14:44;;;;;;;;;;;7.80;99.90;;;;;;5020173;28;19972;-82
2022/12/26 11:17:30;;;;;;;;;;;7.80;99.90;;;;;;5038189;28;19971;-83
2022/12/26 11:20:14;;;;;;;;;;;7.70;99.90;;;;;;5020623;28;19980;-83
2022/12/26 11:22:39;;;;;;;;;;;7.70;99.90;;;;;;5035585;28;19933;-83
2022/12/26 11:25:08;;;;;;;;;;;7.70;99.90;;;;;;5036241;28;19956;-83
2022/12/26 11:27:34;;;;;;;;;;;7.70;99.90;;;;;;5037782;28;20467;-83
2022/12/26 11:30:15;;;;;;;;;;;7.70;99.90;;;;;;5035527;28;19936;-82
2022/12/26 11:32:41;;;;;;;;;;;7.70;99.90;;;;;;5042141;28;19925;-82
2022/12/26 11:35:17;;;;;;;;;;;7.70;99.90;;;;;;5019923;28;19925;-82
2022/12/26 11:37:44;;;;;;;;;;;7.70;99.90;;;;;;5036466;28;20300;-83
2022/12/26 11:40:20;;;;;;;;;;;7.60;99.90;;;;;;5035755;28;19933;-81
2022/12/26 11:42:51;;;;;;;;;;;7.60;99.90;;;;;;5020931;28;19929;-82
2022/12/26 11:45:20;;;;;;;;;;;7.60;99.90;;;;;;5035741;28;19935;-82
2022/12/26 11:47:46;;;;;;;;;;;7.50;99.90;;;;;;5036475;28;19936;-81
2022/12/26 11:50:18;;;;;;;;;;;7.60;99.90;;;;;;5021954;28;20339;-81
2022/12/26 11:52:50;;;;;;;;;;;7.70;99.90;;;;;;5036828;28;19932;-83
2022/12/26 11:55:22;;;;;;;;;;;7.70;99.90;;;;;;5036825;28;19940;-81
2022/12/26 11:58:20;;;;;;;;;;;7.80;99.90;;;;;;5030153;28;20409;-82
2022/12/26 12:00:48;;;;;;;;;;;7.80;99.90;;;;;;4984076;28;19936;-84
2022/12/26 12:03:17;;;;;;;;;;;7.90;99.90;;;;;;5037163;28;20265;-82
2022/12/26 12:05:46;;;;;;;;;;;7.90;99.90;;;;;;5035554;28;19933;-83
2022/12/26 12:08:33;;;;;;;;;;;7.80;99.90;;;;;;5033276;28;20048;-83
2022/12/26 12:11:17;;;;;;;;;;;7.80;99.90;;;;;;5036869;28;19929;-83
2022/12/26 12:13:43;;;;;;;;;;;7.80;99.90;;;;;;5036327;28;20378;-81
2022/12/26 12:16:14;;;;;;;;;;;7.80;99.90;;;;;;5037330;28;20390;-83
2022/12/26 12:18:40;;;;;;;;;;;7.70;99.90;;;;;;5035343;28;20356;-82
2022/12/26 12:21:09;;;;;;;;;;;7.60;99.90;;;;;;5019245;28;20057;-83
2022/12/26 12:23:53;;;;;;;;;;;7.60;99.90;;;;;;5037957;28;19924;-82
2022/12/26 12:26:19;;;;;;;;;;;7.60;99.90;;;;;;5034105;28;19929;-82
2022/12/26 12:28:47;;;;;;;;;;;7.60;99.90;;;;;;5037678;28;19932;-82
2022/12/26 12:31:21;;;;;;;;;;;7.60;99.90;;;;;;5034558;28;20330;-82
2022/12/26 12:34:02;;;;;;;;;;;7.50;99.90;;;;;;5030298;28;19939;-83
2022/12/26 12:36:33;;;;;;;;;;;7.40;99.90;;;;;;5034914;28;19925;-81
2022/12/26 12:39:08;;;;;;;;;;;7.40;99.90;;;;;;5026024;28;19928;-84
2022/12/26 12:41:46;;;;;;;;;;;7.30;99.90;;;;;;5055965;28;19929;-85
2022/12/26 12:44:18;;;;;;;;;;;7.20;99.90;;;;;;5025704;28;19985;-83
2022/12/26 12:46:53;;;;;;;;;;;7.10;99.90;;;;;;5034239;28;19940;-82
2022/12/26 12:49:23;;;;;;;;;;;7.00;99.90;;;;;;5021112;28;19926;-82
2022/12/26 12:51:53;;;;;;;;;;;7.00;99.90;;;;;;5034016;28;19936;-79
2022/12/26 12:54:18;;;;;;;;;;;7.00;99.90;;;;;;5036717;28;19955;-82
2022/12/26 12:56:44;;;;;;;;;;;7.00;99.90;;;;;;5035859;28;19972;-82
2022/12/26 12:59:18;;;;;;;;;;;7.00;99.90;;;;;;5037101;28;19979;-81
2022/12/26 13:01:49;;;;;;;;;;;7.00;99.90;;;;;;5034754;28;20325;-83
2022/12/26 13:04:15;;;;;;;;;;;7.00;99.90;;;;;;5032903;28;19929;-84
2022/12/26 13:06:52;;;;;;;;;;;7.00;99.90;;;;;;5018317;28;19975;-84
2022/12/26 13:09:29;;;;;;;;;;;7.00;99.90;;;;;;5036541;28;19936;-85
2022/12/26 13:12:06;;;;;;;;;;;7.00;99.90;;;;;;5033222;28;19929;-85
2022/12/26 13:14:50;;;;;;;;;;;7.10;99.90;;;;;;5032597;28;19930;-85
2022/12/26 13:17:23;;;;;;;;;;;7.00;99.90;;;;;;5015493;28;19929;-85
2022/12/26 13:19:58;;;;;;;;;;;7.10;99.90;;;;;;5026379;28;19940;-85
2022/12/26 13:22:26;;;;;;;;;;;7.10;99.90;;;;;;5032454;28;19929;-85
2022/12/26 13:24:55;;;;;;;;;;;7.10;99.90;;;;;;5033161;28;19925;-85
2022/12/26 13:27:23;;;;;;;;;;;7.00;99.90;;;;;;5031535;28;19933;-83
2022/12/26 13:29:48;;;;;;;;;;;7.00;99.90;;;;;;5036488;28;20439;-86
2022/12/26 13:32:14;;;;;;;;;;;6.90;99.90;;;;;;5035756;28;19977;-87
2022/12/26 13:34:41;;;;;;;;;;;6.90;99.90;;;;;;5032974;28;19929;-86
2022/12/26 13:37:27;;;;;;;;;;;6.80;99.90;;;;;;5034304;28;19990;-86
2022/12/26 13:39:52;;;;;;;;;;;6.70;99.90;;;;;;5033852;28;19929;-85
2022/12/26 13:45:23;;;;;;;;;;;6.60;99.90;;;;;;5027555;28;21402;-82
2022/12/26 13:47:49;;;;;;;;;;;6.60;99.90;;;;;;5029801;28;19929;-82
2022/12/26 13:50:33;;;;;;;;;;;6.50;99.90;;;;;;5032046;28;20400;-81
2022/12/26 13:52:59;;;;;;;;;;;6.50;99.90;;;;;;5030114;28;19979;-80
2022/12/26 13:55:30;;;;;;;;;;;6.50;99.90;;;;;;5030023;28;19925;-80
2022/12/26 13:58:12;;;;;;;;;;;6.40;99.90;;;;;;5031744;28;19926;-80
2022/12/26 14:00:43;;;;;;;;;;;6.40;99.90;;;;;;5017595;28;19932;-80
2022/12/26 14:03:11;;;;;;;;;;;6.40;99.90;;;;;;5034117;28;19936;-80
2022/12/26 14:05:46;;;;;;;;;;;6.40;99.90;;;;;;5034402;28;19947;-80
2022/12/26 14:08:32;;;;;;;;;;;6.40;99.90;;;;;;5034895;28;19932;-81
2022/12/26 14:10:57;;;;;;;;;;;6.40;99.90;;;;;;5035773;28;19932;-81
2022/12/26 14:13:32;;;;;;;;;;;6.30;99.90;;;;;;5034938;28;19980;-80
2022/12/26 14:16:09;;;;;;;;;;;6.30;99.90;;;;;;5037176;28;20384;-80
2022/12/26 14:18:47;;;;;;;;;;;6.20;99.90;;;;;;5029901;28;19960;-80
2022/12/26 14:21:15;;;;;;;;;;;6.20;99.90;;;;;;5030543;28;19925;-80
2022/12/26 14:23:52;;;;;;;;;;;6.20;99.90;;;;;;5034544;28;19929;-80
2022/12/26 14:26:30;;;;;;;;;;;6.10;99.90;;;;;;5035435;28;19979;-80
2022/12/26 14:28:58;;;;;;;;;;;6.10;99.90;;;;;;5018483;28;20347;-80
2022/12/26 14:31:24;;;;;;;;;;;6.10;99.90;;;;;;5037239;28;19932;-80
2022/12/26 14:34:01;;;;;;;;;;;6.10;99.90;;;;;;5035380;28;20384;-80
2022/12/26 14:36:38;;;;;;;;;;;6.10;99.90;;;;;;5035821;28;19980;-80
2022/12/26 14:39:28;;;;;;;;;;;6.00;99.90;;;;;;5036492;28;20296;-77
2022/12/26 14:44:51;;;;;;;;;;;5.90;99.90;;;;;;5038292;28;20372;-77
2022/12/26 14:47:36;;;;;;;;;;;5.90;99.90;;;;;;5036139;28;19929;-76
2022/12/26 14:50:20;;;;;;;;;;;5.80;99.90;;;;;;5036851;28;20357;-77
2022/12/26 14:52:46;;;;;;;;;;;5.80;99.90;;;;;;5037513;28;19929;-77
2022/12/26 14:55:30;;;;;;;;;;;5.80;99.90;;;;;;5037765;28;19925;-76
2022/12/26 14:58:16;;;;;;;;;;;5.70;99.90;;;;;;5037855;28;19929;-77
2022/12/26 15:00:42;;;;;;;;;;;5.70;99.90;;;;;;5035368;28;19992;-77
2022/12/26 15:03:13;;;;;;;;;;;5.70;99.90;;;;;;5038294;28;19976;-76
2022/12/26 15:05:42;;;;;;;;;;;5.60;99.90;;;;;;5036238;28;19929;-76
2022/12/26 15:08:17;;;;;;;;;;;5.60;99.90;;;;;;5036653;28;19992;-76
2022/12/26 15:10:58;;;;;;;;;;;5.50;99.90;;;;;;5037751;28;19983;-79
2022/12/26 15:13:36;;;;;;;;;;;5.50;99.90;;;;;;5037030;28;20000;-80
2022/12/26 15:16:20;;;;;;;;;;;5.40;99.90;;;;;;5018118;28;19948;-81
2022/12/26 15:19:00;;;;;;;;;;;5.40;99.90;;;;;;5038145;28;19988;-80
2022/12/26 15:21:32;;;;;;;;;;;5.40;99.90;;;;;;5037289;28;20347;-80
2022/12/26 15:24:01;;;;;;;;;;;5.30;99.90;;;;;;5034509;28;19930;-80
2022/12/26 15:26:45;;;;;;;;;;;5.30;99.90;;;;;;5038391;28;19997;-80
2022/12/26 15:29:13;;;;;;;;;;;5.30;99.90;;;;;;5033407;28;19925;-80
2022/12/26 15:31:38;;;;;;;;;;;5.30;99.90;;;;;;5037015;28;19975;-81
2022/12/26 15:34:10;;;;;;;;;;;5.30;99.90;;;;;;5038658;28;19925;-80
2022/12/26 15:36:53;;;;;;;;;;;5.40;99.90;;;;;;5019746;28;19937;-80
2022/12/26 15:39:38;;;;;;;;;;;5.40;99.90;;;;;;5035958;28;20368;-81
2022/12/26 15:42:17;;;;;;;;;;;5.40;99.90;;;;;;5008858;28;19925;-81
2022/12/26 15:44:42;;;;;;;;;;;5.50;99.90;;;;;;5037988;28;19929;-80
2022/12/26 15:47:42;;;;;;;;;;;5.50;99.90;;;;;;5033149;28;20791;-81
2022/12/26 15:50:24;;;;;;;;;;;5.40;99.90;;;;;;5017218;28;20054;-81
2022/12/26 15:53:08;;;;;;;;;;;5.40;99.90;;;;;;5036844;28;20485;-81
2022/12/26 15:55:34;;;;;;;;;;;5.40;99.90;;;;;;5013405;28;19971;-81
2022/12/26 15:58:18;;;;;;;;;;;5.30;99.90;;;;;;5035797;28;19968;-81
2022/12/26 16:00:51;;;;;;;;;;;5.20;99.90;;;;;;5018410;28;19925;-81
2022/12/26 16:03:36;;;;;;;;;;;5.20;99.90;;;;;;5028648;28;19937;-81
2022/12/26 16:06:17;;;;;;;;;;;5.20;99.90;;;;;;5024512;28;19968;-82
2022/12/26 16:08:50;;;;;;;;;;;5.10;99.90;;;;;;5034093;28;19929;-81
2022/12/26 16:11:16;;;;;;;;;;;5.00;99.90;;;;;;5032357;28;19933;-81
2022/12/26 16:13:49;;;;;;;;;;;5.00;99.90;;;;;;5035897;28;20059;-81
2022/12/26 16:16:22;;;;;;;;;;;4.90;99.90;;;;;;5026054;28;19989;-81
2022/12/26 16:18:48;;;;;;;;;;;4.90;99.90;;;;;;5033989;28;19925;-81
2022/12/26 16:24:00;;;;;;;;;;;4.80;99.90;;;;;;5034529;28;19940;-80
2022/12/26 16:26:27;;;;;;;;;;;4.80;99.90;;;;;;5035063;28;19925;-81
2022/12/26 16:28:54;;;;;;;;;;;4.70;99.90;;;;;;5034707;28;19932;-80
2022/12/26 16:31:22;;;;;;;;;;;4.60;99.90;;;;;;5017421;28;20072;-81
2022/12/26 16:33:49;;;;;;;;;;;4.60;99.90;;;;;;5034100;28;19929;-80
2022/12/26 16:36:19;;;;;;;;;;;4.60;99.90;;;;;;5034199;28;19929;-81
2022/12/26 16:38:46;;;;;;;;;;;4.60;99.90;;;;;;5033059;28;20132;-80
2022/12/26 16:41:22;;;;;;;;;;;4.50;99.90;;;;;;5017512;28;19925;-80
2022/12/26 16:43:49;;;;;;;;;;;4.50;99.90;;;;;;5034624;28;19925;-81
2022/12/26 16:46:17;;;;;;;;;;;4.50;99.90;;;;;;5035186;28;19925;-81
2022/12/26 16:48:45;;;;;;;;;;;4.40;99.90;;;;;;5033550;28;19929;-81
2022/12/26 16:51:32;;;;;;;;;;;4.40;99.90;;;;;;5033294;28;20674;-81
2022/12/26 16:54:13;;;;;;;;;;;4.30;99.90;;;;;;5034661;28;19936;-81
2022/12/26 16:56:39;;;;;;;;;;;4.30;99.90;;;;;;5017765;28;20125;-81
2022/12/26 16:59:09;;;;;;;;;;;4.30;99.90;;;;;;5033016;28;19932;-81
2022/12/26 17:01:35;;;;;;;;;;;4.20;99.90;;;;;;5031194;28;20422;-81